Time;durP1;ratioP1;P1;durP2;ratioP2;P2;SDS_P1;SDS_P2;PMS_P1;PMS_P2;Temp;Humidity;BMP_temperature;BMP_pressure;BME280_temperature;BME280_humidity;BME280_pressure;Samples;Min_cycle;Max_cycle;Signal;HPM_P1;HPM_P2
2023/12/22 00:02:17;;;;;;;7.13;1.67;;;;;;;;;;4907293;29;20526;-80
2023/12/22 00:04:44;;;;;;;;;;;;;;;;;;4894894;29;20044;-79
2023/12/22 00:07:12;;;;;;;9.57;1.83;;;;;;;;;;4907243;29;19921;-79
2023/12/22 00:09:40;;;;;;;10.02;2.40;;;;;;;;;;4910142;29;20355;-80
2023/12/22 00:12:08;;;;;;;7.05;1.65;;;;;;;;;;4908640;29;20860;-81
2023/12/22 00:14:37;;;;;;;8.77;2.00;;;;;;;;;;4909411;29;20043;-81
2023/12/22 00:17:05;;;;;;;5.78;1.60;;;;;;;;;;4910693;29;20286;-80
2023/12/22 00:19:32;;;;;;;5.93;1.48;;;;;;;;;;4908425;29;20031;-80
2023/12/22 00:22:03;;;;;;;6.80;1.52;;;;;;;;;;4895802;29;20024;-80
2023/12/22 00:24:30;;;;;;;5.68;1.33;;;;;;;;;;4906318;29;20035;-80
2023/12/22 00:26:56;;;;;;;7.90;1.52;;;;;;;;;;4898007;29;20838;-79
2023/12/22 00:29:24;;;;;;;4.63;1.17;;;;;;;;;;4897190;29;20034;-80
2023/12/22 00:31:50;;;;;;;6.13;1.60;;;;;;;;;;4898288;29;20396;-79
2023/12/22 00:34:19;;;;;;;10.07;4.95;;;;;;;;;;4908271;29;20578;-80
2023/12/22 00:36:46;;;;;;;14.30;8.82;;;;;;;;;;4910849;29;20028;-81
2023/12/22 00:39:14;;;;;;;10.35;4.47;;;;;;;;;;4908731;29;20684;-80
2023/12/22 00:41:42;;;;;;;8.50;2.60;;;;;;;;;;4910176;29;20028;-79
2023/12/22 00:44:10;;;;;;;6.90;1.90;;;;;;;;;;4909701;29;20027;-80
2023/12/22 00:46:38;;;;;;;5.15;1.40;;;;;;;;;;4910426;29;20036;-80
2023/12/22 00:49:06;;;;;;;5.85;1.30;;;;;;;;;;4909544;29;20036;-81
2023/12/22 00:51:33;;;;;;;8.45;1.70;;;;;;;;;;4909153;29;20099;-80
2023/12/22 00:54:01;;;;;;;6.53;1.20;;;;;;;;;;4909806;29;20054;-81
2023/12/22 00:56:28;;;;;;;5.70;1.30;;;;;;;;;;4911545;29;20742;-80
2023/12/22 00:58:54;;;;;;;4.70;1.25;;;;;;;;;;4895054;29;20123;-80
2023/12/22 01:01:21;;;;;;;6.32;1.40;;;;;;;;;;4908485;29;20030;-80
2023/12/22 01:03:48;;;;;;;7.55;1.45;;;;;;;;;;4907808;29;20032;-80
2023/12/22 01:06:16;;;;;;;6.10;1.42;;;;;;;;;;4891305;29;20090;-80
2023/12/22 01:08:42;;;;;;;6.40;1.50;;;;;;;;;;4891831;29;20028;-80
2023/12/22 01:11:08;;;;;;;4.63;1.15;;;;;;;;;;4907230;29;20032;-79
2023/12/22 01:13:35;;;;;;;4.78;1.33;;;;;;;;;;4894916;29;20118;-79
2023/12/22 01:16:01;;;;;;;6.38;1.35;;;;;;;;;;4909403;29;20039;-79
2023/12/22 01:18:29;;;;;;;6.57;1.33;;;;;;;;;;4891931;29;20051;-80
2023/12/22 01:20:56;;;;;;;4.85;1.20;;;;;;;;;;4907985;29;20043;-78
2023/12/22 01:23:22;;;;;;;6.60;1.25;;;;;;;;;;4908128;29;20381;-78
2023/12/22 01:25:49;;;;;;;5.13;1.02;;;;;;;;;;4909428;29;20487;-78
2023/12/22 01:28:16;;;;;;;5.55;1.30;;;;;;;;;;4906299;29;20099;-78
2023/12/22 01:30:42;;;;;;;5.40;1.27;;;;;;;;;;4891481;29;20706;-78
2023/12/22 01:33:09;;;;;;;7.38;1.73;;;;;;;;;;4887267;29;20446;-78
2023/12/22 01:35:35;;;;;;;8.07;2.13;;;;;;;;;;4891939;29;20035;-78
2023/12/22 01:38:01;;;;;;;8.05;1.50;;;;;;;;;;4890402;29;20046;-79
2023/12/22 01:40:29;;;;;;;8.32;2.00;;;;;;;;;;4888504;29;20583;-78
2023/12/22 01:42:55;;;;;;;7.35;1.25;;;;;;;;;;4889499;29;20032;-78
2023/12/22 01:45:22;;;;;;;6.10;1.48;;;;;;;;;;4889374;29;20039;-78
2023/12/22 01:47:49;;;;;;;6.18;1.25;;;;;;;;;;4889582;29;20549;-78
2023/12/22 01:50:17;;;;;;;5.47;1.27;;;;;;;;;;4888015;29;20629;-78
2023/12/22 01:52:44;;;;;;;7.72;2.17;;;;;;;;;;4913989;29;20297;-78
2023/12/22 01:55:12;;;;;;;7.10;1.20;;;;;;;;;;4902982;29;20027;-78
2023/12/22 01:57:40;;;;;;;6.28;1.00;;;;;;;;;;4898389;29;20705;-79
2023/12/22 02:00:10;;;;;;;5.07;0.90;;;;;;;;;;4907001;29;20500;-79
2023/12/22 02:02:38;;;;;;;5.35;1.10;;;;;;;;;;4898095;29;20036;-78
2023/12/22 02:05:09;;;;;;;7.13;1.52;;;;;;;;;;4907811;29;20047;-77
2023/12/22 02:07:36;;;;;;;5.25;0.90;;;;;;;;;;4893692;29;20028;-80
2023/12/22 02:10:03;;;;;;;4.90;0.90;;;;;;;;;;4910543;29;20039;-78
2023/12/22 02:12:30;;;;;;;6.03;1.60;;;;;;;;;;4909429;29;20536;-79
2023/12/22 02:14:57;;;;;;;5.80;1.20;;;;;;;;;;4895964;29;20086;-78
2023/12/22 02:17:30;;;;;;;3.05;0.70;;;;;;;;;;4902041;29;20673;-78
2023/12/22 02:19:57;;;;;;;5.85;1.10;;;;;;;;;;4907193;29;20107;-78
2023/12/22 02:22:23;;;;;;;5.30;0.75;;;;;;;;;;4906874;29;20038;-79
2023/12/22 02:24:50;;;;;;;5.53;1.13;;;;;;;;;;4899800;29;20047;-79
2023/12/22 02:27:28;;;;;;;4.15;1.30;;;;;;;;;;4893403;29;20103;-81
2023/12/22 02:30:13;;;;;;;6.55;1.60;;;;;;;;;;4893429;29;20036;-78
2023/12/22 02:32:42;;;;;;;4.93;0.93;;;;;;;;;;4894039;29;20039;-78
2023/12/22 02:35:11;;;;;;;4.50;1.00;;;;;;;;;;4907039;29;20042;-80
2023/12/22 02:37:44;;;;;;;4.88;1.23;;;;;;;;;;4896133;29;20034;-79
2023/12/22 02:40:11;;;;;;;5.38;1.10;;;;;;;;;;4905258;29;20048;-79
2023/12/22 02:42:38;;;;;;;3.70;0.80;;;;;;;;;;4894961;29;20051;-80
2023/12/22 02:45:07;;;;;;;5.25;1.10;;;;;;;;;;4894030;29;20037;-80
2023/12/22 02:47:36;;;;;;;2.53;0.70;;;;;;;;;;4893794;29;20043;-79
2023/12/22 02:50:02;;;;;;;4.15;0.80;;;;;;;;;;4888680;29;20163;-80
2023/12/22 02:52:31;;;;;;;3.42;0.85;;;;;;;;;;4890773;29;20044;-79
2023/12/22 02:54:59;;;;;;;3.03;0.73;;;;;;;;;;4912801;29;20039;-80
2023/12/22 02:57:25;;;;;;;4.65;0.80;;;;;;;;;;4904332;29;22097;-79
2023/12/22 02:59:52;;;;;;;3.17;0.70;;;;;;;;;;4911409;29;20028;-80
2023/12/22 03:02:19;;;;;;;7.35;1.08;;;;;;;;;;4907331;29;20036;-80
2023/12/22 03:04:47;;;;;;;4.63;0.77;;;;;;;;;;4899940;29;20050;-80
2023/12/22 03:07:14;;;;;;;4.43;1.17;;;;;;;;;;4910921;29;20039;-78
2023/12/22 03:09:44;;;;;;;4.20;1.02;;;;;;;;;;4911061;29;20135;-77
2023/12/22 03:12:11;;;;;;;4.55;0.95;;;;;;;;;;4909849;29;20038;-77
2023/12/22 03:14:37;;;;;;;5.20;1.00;;;;;;;;;;4915247;29;20098;-78
2023/12/22 03:17:07;;;;;;;2.78;0.90;;;;;;;;;;4897151;29;20028;-78
2023/12/22 03:19:34;;;;;;;4.97;1.00;;;;;;;;;;4895814;29;20040;-78
2023/12/22 03:22:03;;;;;;;4.35;0.95;;;;;;;;;;4911507;29;20034;-77
2023/12/22 03:24:30;;;;;;;6.13;1.63;;;;;;;;;;4909235;29;20031;-78
2023/12/22 03:26:56;;;;;;;5.25;0.90;;;;;;;;;;4909697;29;20148;-77
2023/12/22 03:29:23;;;;;;;4.43;1.00;;;;;;;;;;4910973;29;20905;-77
2023/12/22 03:31:50;;;;;;;5.57;1.30;;;;;;;;;;4910062;29;20054;-80
2023/12/22 03:34:18;;;;;;;4.72;1.38;;;;;;;;;;4913624;29;20494;-79
2023/12/22 03:36:48;;;;;;;4.85;1.10;;;;;;;;;;4898090;29;20041;-80
2023/12/22 03:39:16;;;;;;;4.05;0.98;;;;;;;;;;4907175;29;20115;-78
2023/12/22 03:41:43;;;;;;;5.55;1.15;;;;;;;;;;4912502;29;20072;-77
2023/12/22 03:44:10;;;;;;;5.65;1.27;;;;;;;;;;4913760;29;20056;-78
2023/12/22 03:46:39;;;;;;;4.68;1.20;;;;;;;;;;4897129;29;20040;-79
2023/12/22 03:49:06;;;;;;;5.22;1.60;;;;;;;;;;4890146;29;20123;-79
2023/12/22 03:51:35;;;;;;;6.20;1.10;;;;;;;;;;4894130;29;20592;-78
2023/12/22 03:54:02;;;;;;;4.70;1.15;;;;;;;;;;4893482;29;20059;-79
2023/12/22 03:56:30;;;;;;;4.47;1.20;;;;;;;;;;4905311;29;20051;-78
2023/12/22 03:58:56;;;;;;;5.40;1.23;;;;;;;;;;4908398;29;20644;-78
2023/12/22 04:01:23;;;;;;;8.07;1.63;;;;;;;;;;4894776;29;20028;-78
2023/12/22 04:03:51;;;;;;;5.55;1.10;;;;;;;;;;4897628;29;20035;-78
2023/12/22 04:06:18;;;;;;;4.47;0.95;;;;;;;;;;4905320;29;20040;-78
2023/12/22 04:08:45;;;;;;;4.97;1.00;;;;;;;;;;4910432;29;20063;-78
2023/12/22 04:11:12;;;;;;;6.65;1.33;;;;;;;;;;4905287;29;20507;-78
2023/12/22 04:13:38;;;;;;;6.78;1.17;;;;;;;;;;4906948;29;20074;-79
2023/12/22 04:16:05;;;;;;;4.93;1.00;;;;;;;;;;4910518;29;20039;-77
2023/12/22 04:18:34;;;;;;;8.68;1.27;;;;;;;;;;4893192;29;20114;-78
2023/12/22 04:21:01;;;;;;;8.02;1.60;;;;;;;;;;4911280;29;20084;-78
2023/12/22 04:23:27;;;;;;;6.82;1.33;;;;;;;;;;4911031;29;20039;-78
2023/12/22 04:25:54;;;;;;;7.13;1.40;;;;;;;;;;4907192;29;20070;-79
2023/12/22 04:28:22;;;;;;;8.63;1.65;;;;;;;;;;4907524;29;20040;-80
2023/12/22 04:30:50;;;;;;;7.70;1.80;;;;;;;;;;4909930;29;20122;-79
2023/12/22 04:33:18;;;;;;;7.80;1.60;;;;;;;;;;4906810;29;20039;-79
2023/12/22 04:35:45;;;;;;;6.70;1.30;;;;;;;;;;4896168;29;20081;-79
2023/12/22 04:38:14;;;;;;;7.78;1.75;;;;;;;;;;4891934;29;20028;-79
2023/12/22 04:40:41;;;;;;;8.60;1.50;;;;;;;;;;4895626;29;20284;-78
2023/12/22 04:43:09;;;;;;;9.48;1.63;;;;;;;;;;4909059;28;20028;-80
2023/12/22 04:45:37;;;;;;;6.57;1.45;;;;;;;;;;4894956;29;20052;-78
2023/12/22 04:48:04;;;;;;;5.95;1.20;;;;;;;;;;4915010;29;20506;-78
2023/12/22 04:50:30;;;;;;;6.80;1.40;;;;;;;;;;4906873;29;20083;-77
2023/12/22 04:52:58;;;;;;;6.85;1.48;;;;;;;;;;4910801;29;20047;-77
2023/12/22 04:55:24;;;;;;;5.50;1.25;;;;;;;;;;4909114;28;20032;-77
2023/12/22 04:57:51;;;;;;;5.15;1.38;;;;;;;;;;4915364;28;20039;-77
2023/12/22 05:00:17;;;;;;;7.80;1.70;;;;;;;;;;4905861;29;20028;-78
2023/12/22 05:02:45;;;;;;;6.00;1.33;;;;;;;;;;4900670;29;20035;-77
2023/12/22 05:05:11;;;;;;;5.05;1.40;;;;;;;;;;4892613;29;20039;-80
2023/12/22 05:07:40;;;;;;;5.95;1.50;;;;;;;;;;4912141;29;20038;-77
2023/12/22 05:10:08;;;;;;;6.18;1.30;;;;;;;;;;4895027;29;20894;-79
2023/12/22 05:12:35;;;;;;;6.15;1.58;;;;;;;;;;4896270;29;20756;-77
2023/12/22 05:15:03;;;;;;;5.70;1.30;;;;;;;;;;4912198;29;20032;-78
2023/12/22 05:17:29;;;;;;;5.53;1.45;;;;;;;;;;4908163;29;20912;-78
2023/12/22 05:19:55;;;;;;;6.35;1.50;;;;;;;;;;4892186;29;20031;-77
2023/12/22 05:22:23;;;;;;;6.40;1.40;;;;;;;;;;4905538;29;20067;-78
2023/12/22 05:24:50;;;;;;;5.75;1.55;;;;;;;;;;4912530;29;20106;-77
2023/12/22 05:27:19;;;;;;;8.30;1.73;;;;;;;;;;4904589;29;20547;-79
2023/12/22 05:29:45;;;;;;;7.75;1.67;;;;;;;;;;4907825;29;20031;-79
2023/12/22 05:32:12;;;;;;;4.18;1.40;;;;;;;;;;4889941;28;20114;-80
2023/12/22 05:34:39;;;;;;;7.72;1.73;;;;;;;;;;4894272;29;20118;-79
2023/12/22 05:37:05;;;;;;;8.10;1.65;;;;;;;;;;4908183;28;20027;-79
2023/12/22 05:39:33;;;;;;;5.47;1.42;;;;;;;;;;4909823;29;20054;-77
2023/12/22 05:41:59;;;;;;;7.88;1.77;;;;;;;;;;4893166;29;20028;-79
2023/12/22 05:44:29;;;;;;;5.57;1.42;;;;;;;;;;4890330;29;20024;-78
2023/12/22 05:46:55;;;;;;;8.95;1.90;;;;;;;;;;4908050;29;20036;-78
2023/12/22 05:49:21;;;;;;;7.60;2.13;;;;;;;;;;4906633;28;20079;-78
2023/12/22 05:51:48;;;;;;;8.02;2.17;;;;;;;;;;4904333;29;20538;-78
2023/12/22 05:54:16;;;;;;;7.97;2.30;;;;;;;;;;4907550;29;20045;-77
2023/12/22 05:56:44;;;;;;;7.90;2.10;;;;;;;;;;4907557;29;20106;-78
2023/12/22 05:59:11;;;;;;;8.80;1.90;;;;;;;;;;4902378;29;20032;-77
2023/12/22 06:01:38;;;;;;;12.90;2.70;;;;;;;;;;4902935;29;20031;-78
2023/12/22 06:04:07;;;;;;;7.38;2.30;;;;;;;;;;4910002;29;20043;-78
2023/12/22 06:06:33;;;;;;;8.63;2.40;;;;;;;;;;4894916;29;20048;-78
2023/12/22 06:08:59;;;;;;;7.35;2.00;;;;;;;;;;4911146;29;20043;-79
2023/12/22 06:11:27;;;;;;;8.35;2.10;;;;;;;;;;4906854;29;20647;-78
2023/12/22 06:13:54;;;;;;;12.60;2.65;;;;;;;;;;4892359;29;20551;-78
2023/12/22 06:16:21;;;;;;;11.73;2.70;;;;;;;;;;4889559;29;20039;-78
2023/12/22 06:18:49;;;;;;;10.40;2.70;;;;;;;;;;4907156;29;20563;-78
2023/12/22 06:21:17;;;;;;;8.75;2.65;;;;;;;;;;4904181;29;20051;-79
2023/12/22 06:23:45;;;;;;;10.45;2.60;;;;;;;;;;4906320;29;20696;-79
2023/12/22 06:26:12;;;;;;;9.68;2.20;;;;;;;;;;4903181;29;20024;-79
2023/12/22 06:28:40;;;;;;;9.63;2.17;;;;;;;;;;4910172;29;20036;-78
2023/12/22 06:31:09;;;;;;;9.30;2.40;;;;;;;;;;4913448;29;20063;-78
2023/12/22 06:33:37;;;;;;;8.82;2.38;;;;;;;;;;4883199;29;20046;-80
2023/12/22 06:36:04;;;;;;;9.95;2.60;;;;;;;;;;4912496;29;20036;-77
2023/12/22 06:38:32;;;;;;;9.88;2.83;;;;;;;;;;4896299;29;20024;-77
2023/12/22 06:40:58;;;;;;;10.13;2.83;;;;;;;;;;4912921;29;20042;-78
2023/12/22 06:43:24;;;;;;;9.27;3.55;;;;;;;;;;4905981;29;20059;-79
2023/12/22 06:45:54;;;;;;;10.18;4.22;;;;;;;;;;4896792;29;20087;-79
2023/12/22 06:48:22;;;;;;;10.30;5.07;;;;;;;;;;4909620;29;20024;-80
2023/12/22 06:50:49;;;;;;;13.00;5.18;;;;;;;;;;4914036;28;20051;-78
2023/12/22 06:53:17;;;;;;;10.75;4.80;;;;;;;;;;4905635;29;20087;-78
2023/12/22 06:55:44;;;;;;;10.57;4.80;;;;;;;;;;4906950;29;20032;-78
2023/12/22 06:58:11;;;;;;;12.40;4.50;;;;;;;;;;4895954;29;20026;-78
2023/12/22 07:00:37;;;;;;;10.80;4.22;;;;;;;;;;4897352;29;21045;-80
2023/12/22 07:03:05;;;;;;;13.13;4.35;;;;;;;;;;4910392;29;20473;-78
2023/12/22 07:05:36;;;;;;;11.75;4.03;;;;;;;;;;4909219;29;20052;-78
2023/12/22 07:08:03;;;;;;;14.88;4.20;;;;;;;;;;4897119;29;20028;-78
2023/12/22 07:10:30;;;;;;;13.88;4.70;;;;;;;;;;4893530;29;20036;-80
2023/12/22 07:12:56;;;;;;;16.00;4.47;;;;;;;;;;4909613;28;20126;-78
2023/12/22 07:15:22;;;;;;;14.32;4.68;;;;;;;;;;4894153;28;20093;-78
2023/12/22 07:17:48;;;;;;;11.18;4.30;;;;;;;;;;4910787;29;20035;-78
2023/12/22 07:20:15;;;;;;;15.82;4.43;;;;;;;;;;4891718;29;20075;-78
2023/12/22 07:22:45;;;;;;;14.25;5.10;;;;;;;;;;4911041;29;20047;-78
2023/12/22 07:25:13;;;;;;;12.23;4.50;;;;;;;;;;4903315;29;20135;-78
2023/12/22 07:27:41;;;;;;;20.40;8.88;;;;;;;;;;4911672;29;20050;-78
2023/12/22 07:30:11;;;;;;;18.60;9.05;;;;;;;;;;4892962;29;20086;-78
2023/12/22 07:32:39;;;;;;;19.83;10.18;;;;;;;;;;4892674;29;21176;-78
2023/12/22 07:35:07;;;;;;;17.05;7.95;;;;;;;;;;4896423;29;20390;-78
2023/12/22 07:37:36;;;;;;;15.27;6.53;;;;;;;;;;4909953;29;20036;-78
2023/12/22 07:40:03;;;;;;;15.50;5.93;;;;;;;;;;4903201;29;20035;-78
2023/12/22 07:42:29;;;;;;;14.05;5.53;;;;;;;;;;4908692;29;20030;-77
2023/12/22 07:44:55;;;;;;;16.60;7.38;;;;;;;;;;4907615;29;20122;-78
2023/12/22 07:47:26;;;;;;;20.02;6.70;;;;;;;;;;4905005;29;20042;-78
2023/12/22 07:49:53;;;;;;;18.25;6.63;;;;;;;;;;4911567;29;20798;-78
2023/12/22 07:52:21;;;;;;;18.30;6.40;;;;;;;;;;4904794;28;20112;-79
2023/12/22 07:54:48;;;;;;;20.00;7.28;;;;;;;;;;4909756;29;20031;-78
2023/12/22 07:57:15;;;;;;;20.85;10.98;;;;;;;;;;4904305;29;20112;-78
2023/12/22 07:59:43;;;;;;;15.98;6.00;;;;;;;;;;4896243;29;20603;-78
2023/12/22 08:02:11;;;;;;;14.38;5.88;;;;;;;;;;4907765;29;20034;-78
2023/12/22 08:04:39;;;;;;;12.48;4.47;;;;;;;;;;4896496;29;20834;-78
2023/12/22 08:07:08;;;;;;;16.92;4.80;;;;;;;;;;4908929;29;20556;-79
2023/12/22 08:09:35;;;;;;;15.93;4.50;;;;;;;;;;4896311;29;20043;-79
2023/12/22 08:12:04;;;;;;;15.88;6.20;;;;;;;;;;4896447;29;20090;-78
2023/12/22 08:14:32;;;;;;;20.75;5.60;;;;;;;;;;4909513;29;20067;-78
2023/12/22 08:17:01;;;;;;;14.10;5.20;;;;;;;;;;4895826;29;20052;-78
2023/12/22 08:19:28;;;;;;;17.67;6.85;;;;;;;;;;4909326;29;20039;-78
2023/12/22 08:21:54;;;;;;;21.75;6.80;;;;;;;;;;4909888;29;20062;-78
2023/12/22 08:24:22;;;;;;;18.20;6.60;;;;;;;;;;4906911;29;20094;-78
2023/12/22 08:26:49;;;;;;;19.00;6.43;;;;;;;;;;4892395;29;20060;-78
2023/12/22 08:29:18;;;;;;;22.90;6.80;;;;;;;;;;4891987;29;20032;-78
2023/12/22 08:31:44;;;;;;;17.45;6.32;;;;;;;;;;4912965;29;20032;-78
2023/12/22 08:34:10;;;;;;;;;;;;;;;;;;4908131;29;20841;-78
2023/12/22 08:36:38;;;;;;;22.77;6.97;;;;;;;;;;4909124;29;19952;-78
2023/12/22 08:39:07;;;;;;;21.25;6.78;;;;;;;;;;4895739;29;20153;-78
2023/12/22 08:41:36;;;;;;;22.48;8.23;;;;;;;;;;4911679;28;20031;-78
2023/12/22 08:44:04;;;;;;;18.95;6.95;;;;;;;;;;4912746;28;20023;-78
2023/12/22 08:46:30;;;;;;;15.73;6.50;;;;;;;;;;4890853;29;20479;-79
2023/12/22 08:48:59;;;;;;;20.33;6.93;;;;;;;;;;4908324;29;20035;-78
2023/12/22 08:51:25;;;;;;;21.25;8.48;;;;;;;;;;4887909;29;20104;-77
2023/12/22 08:53:57;;;;;;;26.75;9.60;;;;;;;;;;4891622;29;20028;-77
2023/12/22 08:56:23;;;;;;;23.70;9.75;;;;;;;;;;4873414;29;20031;-78
2023/12/22 08:58:51;;;;;;;18.35;9.00;;;;;;;;;;4891923;29;20032;-78
2023/12/22 09:01:19;;;;;;;21.13;9.68;;;;;;;;;;4891200;29;20073;-78
2023/12/22 09:03:46;;;;;;;17.63;7.63;;;;;;;;;;4892084;29;20036;-78
2023/12/22 09:06:17;;;;;;;20.58;7.97;;;;;;;;;;4890461;29;20059;-78
2023/12/22 09:08:45;;;;;;;17.50;6.82;;;;;;;;;;4891205;29;20100;-78
2023/12/22 09:11:14;;;;;;;19.15;6.72;;;;;;;;;;4874641;29;20032;-77
2023/12/22 09:13:41;;;;;;;17.58;7.22;;;;;;;;;;4892665;29;20089;-78
2023/12/22 09:16:09;;;;;;;18.52;5.80;;;;;;;;;;4887108;29;20048;-77
2023/12/22 09:18:35;;;;;;;16.42;4.82;;;;;;;;;;4874097;29;20035;-78
2023/12/22 09:21:03;;;;;;;13.45;5.13;;;;;;;;;;4877503;29;20028;-77
2023/12/22 09:23:31;;;;;;;17.70;5.25;;;;;;;;;;4887208;29;20067;-78
2023/12/22 09:25:58;;;;;;;16.83;5.57;;;;;;;;;;4874845;29;20036;-77
2023/12/22 09:28:25;;;;;;;14.45;5.00;;;;;;;;;;4888790;29;20043;-78
2023/12/22 09:30:52;;;;;;;15.07;4.70;;;;;;;;;;4889440;29;20114;-78
2023/12/22 09:33:22;;;;;;;12.05;3.90;;;;;;;;;;4884348;29;20028;-78
2023/12/22 09:35:50;;;;;;;14.70;4.03;;;;;;;;;;4874589;29;20489;-78
2023/12/22 09:38:19;;;;;;;12.55;4.07;;;;;;;;;;4886134;29;20032;-77
2023/12/22 09:40:49;;;;;;;10.93;3.70;;;;;;;;;;4892073;29;20108;-79
2023/12/22 09:43:18;;;;;;;11.50;3.42;;;;;;;;;;4872612;29;20037;-79
2023/12/22 09:45:50;;;;;;;11.20;3.80;;;;;;;;;;4889635;29;20100;-79
2023/12/22 09:48:27;;;;;;;11.23;3.10;;;;;;;;;;4887387;29;20028;-80
2023/12/22 09:50:56;;;;;;;11.68;3.75;;;;;;;;;;4886068;29;20669;-80
2023/12/22 09:53:24;;;;;;;11.43;3.20;;;;;;;;;;4904707;29;20310;-81
2023/12/22 09:55:53;;;;;;;9.90;3.40;;;;;;;;;;4908928;29;20027;-80
2023/12/22 09:58:21;;;;;;;12.73;3.25;;;;;;;;;;4906375;29;20042;-79
2023/12/22 10:00:50;;;;;;;11.45;3.30;;;;;;;;;;4905262;29;20046;-80
2023/12/22 10:03:16;;;;;;;10.88;3.10;;;;;;;;;;4891922;29;20028;-79
2023/12/22 10:05:43;;;;;;;10.65;3.58;;;;;;;;;;4908914;29;20039;-80
2023/12/22 10:08:12;;;;;;;12.02;3.40;;;;;;;;;;4906156;29;20036;-80
2023/12/22 10:10:43;;;;;;;12.32;3.22;;;;;;;;;;4910056;28;20028;-81
2023/12/22 10:13:10;;;;;;;9.65;3.22;;;;;;;;;;4888952;29;20091;-79
2023/12/22 10:15:42;;;;;;;13.25;4.35;;;;;;;;;;4907528;29;20035;-80
2023/12/22 10:18:13;;;;;;;10.60;3.00;;;;;;;;;;4904321;29;20163;-80
2023/12/22 10:20:40;;;;;;;10.77;3.17;;;;;;;;;;4910326;29;20034;-80
2023/12/22 10:23:07;;;;;;;9.65;3.10;;;;;;;;;;4909029;29;20604;-78
2023/12/22 10:25:35;;;;;;;11.73;3.25;;;;;;;;;;4910966;29;20032;-78
2023/12/22 10:28:03;;;;;;;9.55;3.17;;;;;;;;;;4890238;29;20039;-79
2023/12/22 10:30:32;;;;;;;12.10;3.50;;;;;;;;;;4905694;29;20169;-79
2023/12/22 10:33:00;;;;;;;13.05;3.22;;;;;;;;;;4906762;29;20047;-79
2023/12/22 10:35:26;;;;;;;10.82;2.70;;;;;;;;;;4907494;28;20687;-78
2023/12/22 10:37:56;;;;;;;11.85;2.67;;;;;;;;;;4892529;29;20040;-77
2023/12/22 10:40:24;;;;;;;12.77;2.70;;;;;;;;;;4889587;29;20028;-78
2023/12/22 10:42:51;;;;;;;11.88;3.15;;;;;;;;;;4892822;29;20158;-78
2023/12/22 10:45:21;;;;;;;14.20;2.88;;;;;;;;;;4890762;29;20039;-80
2023/12/22 10:47:53;;;;;;;10.02;2.78;;;;;;;;;;4905113;29;20162;-79
2023/12/22 10:50:20;;;;;;;10.85;3.08;;;;;;;;;;4884181;29;20063;-80
2023/12/22 10:52:51;;;;;;;13.52;3.70;;;;;;;;;;4874270;29;20063;-79
2023/12/22 10:55:19;;;;;;;12.25;3.03;;;;;;;;;;4869309;29;20032;-78
2023/12/22 10:57:52;;;;;;;11.05;3.13;;;;;;;;;;4884822;29;20444;-79
2023/12/22 11:00:21;;;;;;;13.85;3.53;;;;;;;;;;4885283;29;20028;-78
2023/12/22 11:02:49;;;;;;;13.73;4.40;;;;;;;;;;4873418;29;20044;-80
2023/12/22 11:05:18;;;;;;;13.23;3.80;;;;;;;;;;4872177;29;20032;-79
2023/12/22 11:07:50;;;;;;;12.45;3.53;;;;;;;;;;4888249;29;20126;-82
2023/12/22 11:10:19;;;;;;;14.05;3.97;;;;;;;;;;4884244;29;20037;-81
2023/12/22 11:12:48;;;;;;;14.35;4.50;;;;;;;;;;4885757;29;20671;-82
2023/12/22 11:15:15;;;;;;;11.43;3.53;;;;;;;;;;4874825;29;20103;-80
2023/12/22 11:17:44;;;;;;;12.77;3.08;;;;;;;;;;4877982;29;20036;-80
2023/12/22 11:20:14;;;;;;;11.65;3.28;;;;;;;;;;4875319;29;20043;-80
2023/12/22 11:22:43;;;;;;;11.05;3.10;;;;;;;;;;4895030;29;20051;-80
2023/12/22 11:25:10;;;;;;;9.85;3.30;;;;;;;;;;4887481;29;20028;-81
2023/12/22 11:27:38;;;;;;;8.27;2.70;;;;;;;;;;4878175;29;20040;-80
2023/12/22 11:30:11;;;;;;;9.43;3.00;;;;;;;;;;4873787;29;20045;-81
2023/12/22 11:32:40;;;;;;;10.20;2.63;;;;;;;;;;4886196;29;20430;-81
2023/12/22 11:35:08;;;;;;;8.68;2.53;;;;;;;;;;4893758;29;20119;-81
2023/12/22 11:37:36;;;;;;;11.50;4.90;;;;;;;;;;4890266;29;20127;-81
2023/12/22 11:40:03;;;;;;;10.73;2.97;;;;;;;;;;4876424;29;20096;-80
2023/12/22 11:42:39;;;;;;;9.52;2.80;;;;;;;;;;4874105;29;20750;-82
2023/12/22 11:45:10;;;;;;;8.98;2.72;;;;;;;;;;4893228;29;20082;-82
2023/12/22 11:47:38;;;;;;;13.73;5.72;;;;;;;;;;4894435;29;20044;-80
2023/12/22 11:50:09;;;;;;;10.38;3.20;;;;;;;;;;4878978;29;20035;-80
2023/12/22 11:52:35;;;;;;;8.30;2.90;;;;;;;;;;4895585;29;20067;-83
2023/12/22 11:55:02;;;;;;;9.95;3.38;;;;;;;;;;4896032;29;20138;-80
2023/12/22 11:57:32;;;;;;;10.23;3.10;;;;;;;;;;4906800;29;20456;-80
2023/12/22 12:00:34;;;;;;;10.35;3.45;;;;;;;;;;4909908;29;20012;-80
2023/12/22 12:03:06;;;;;;;10.48;2.95;;;;;;;;;;4909857;29;20034;-79
2023/12/22 12:05:34;;;;;;;9.45;3.10;;;;;;;;;;4911311;29;20043;-79
2023/12/22 12:08:10;;;;;;;8.95;3.30;;;;;;;;;;4931179;29;20088;-80
2023/12/22 12:10:53;;;;;;;10.45;3.20;;;;;;;;;;4913813;29;20043;-80
2023/12/22 12:13:25;;;;;;;17.17;3.67;;;;;;;;;;4932070;29;20100;-78
2023/12/22 12:15:52;;;;;;;9.50;3.13;;;;;;;;;;4933916;29;20016;-81
2023/12/22 12:18:33;;;;;;;9.95;3.30;;;;;;;;;;4915621;29;20718;-79
2023/12/22 12:21:01;;;;;;;8.88;3.88;;;;;;;;;;4918720;29;20023;-80
2023/12/22 12:23:28;;;;;;;12.00;4.40;;;;;;;;;;4933376;29;22194;-80
2023/12/22 12:25:54;;;;;;;10.40;3.85;;;;;;;;;;4910797;29;20032;-79
2023/12/22 12:28:27;;;;;;;10.95;3.78;;;;;;;;;;4928214;29;20039;-79
2023/12/22 12:31:08;;;;;;;11.80;3.90;;;;;;;;;;4912335;29;20034;-78
2023/12/22 12:33:38;;;;;;;10.50;3.65;;;;;;;;;;4898428;29;20085;-83
2023/12/22 12:36:05;;;;;;;10.95;3.30;;;;;;;;;;4913772;29;20039;-80
2023/12/22 12:38:51;;;;;;;10.77;3.70;;;;;;;;;;4923382;29;20039;-80
2023/12/22 12:41:24;;;;;;;10.95;3.53;;;;;;;;;;4907512;29;20059;-73
2023/12/22 12:43:52;;;;;;;8.38;2.72;;;;;;;;;;4905461;29;20503;-73
2023/12/22 12:46:19;;;;;;;10.80;3.25;;;;;;;;;;4905549;29;20070;-73
2023/12/22 12:48:46;;;;;;;11.43;3.17;;;;;;;;;;4907426;29;20066;-73
2023/12/22 12:51:14;;;;;;;12.30;4.70;;;;;;;;;;4903064;29;20044;-73
2023/12/22 12:53:41;;;;;;;9.85;3.72;;;;;;;;;;4907795;29;20091;-73
2023/12/22 12:56:09;;;;;;;10.70;4.20;;;;;;;;;;4891235;29;20035;-73
2023/12/22 12:58:35;;;;;;;13.90;4.38;;;;;;;;;;4905429;29;20025;-73
2023/12/22 13:01:12;;;;;;;10.07;3.25;;;;;;;;;;4912266;29;20035;-74
2023/12/22 13:03:54;;;;;;;10.85;3.00;;;;;;;;;;4891444;29;20044;-73
2023/12/22 13:06:21;;;;;;;8.20;2.90;;;;;;;;;;4904127;29;20055;-73
2023/12/22 13:08:56;;;;;;;10.50;3.15;;;;;;;;;;4909032;29;20030;-74
2023/12/22 13:11:27;;;;;;;12.88;4.50;;;;;;;;;;4904930;29;20020;-74
2023/12/22 13:13:54;;;;;;;12.25;4.25;;;;;;;;;;4903783;29;20028;-74
2023/12/22 13:16:22;;;;;;;10.55;4.05;;;;;;;;;;4901067;29;20020;-74
2023/12/22 13:18:50;;;;;;;10.82;3.90;;;;;;;;;;4893719;29;20023;-73
2023/12/22 13:21:17;;;;;;;9.85;3.45;;;;;;;;;;4905102;29;20031;-73
2023/12/22 13:23:45;;;;;;;11.63;4.60;;;;;;;;;;4906215;29;20032;-73
2023/12/22 13:26:21;;;;;;;11.38;3.30;;;;;;;;;;4904512;29;20123;-73
2023/12/22 13:28:49;;;;;;;10.23;3.47;;;;;;;;;;4893380;29;20425;-73
2023/12/22 13:31:17;;;;;;;12.02;4.60;;;;;;;;;;4902751;29;20513;-74
2023/12/22 13:33:45;;;;;;;11.18;4.13;;;;;;;;;;4905814;29;20083;-73
2023/12/22 13:36:14;;;;;;;9.30;3.67;;;;;;;;;;4903240;29;20035;-73
2023/12/22 13:38:46;;;;;;;10.50;3.88;;;;;;;;;;4908155;29;20027;-74
2023/12/22 13:41:14;;;;;;;10.10;3.97;;;;;;;;;;4886293;29;20696;-74
2023/12/22 13:43:40;;;;;;;10.45;3.63;;;;;;;;;;4910284;29;20482;-73
2023/12/22 13:46:08;;;;;;;10.25;3.67;;;;;;;;;;4906494;29;20027;-73
2023/12/22 13:48:35;;;;;;;15.52;4.38;;;;;;;;;;4908377;29;20458;-74
2023/12/22 13:51:01;;;;;;;12.30;4.88;;;;;;;;;;4885196;29;20086;-73
2023/12/22 13:53:27;;;;;;;10.90;4.63;;;;;;;;;;4888930;29;20042;-73
2023/12/22 13:55:57;;;;;;;10.50;3.80;;;;;;;;;;4895859;29;20036;-73
2023/12/22 13:58:25;;;;;;;11.25;3.20;;;;;;;;;;4874509;29;20024;-74
2023/12/22 14:00:52;;;;;;;11.90;3.40;;;;;;;;;;4875588;29;20254;-73
2023/12/22 14:03:23;;;;;;;9.13;3.65;;;;;;;;;;4886695;29;20036;-74
2023/12/22 14:05:49;;;;;;;10.30;3.20;;;;;;;;;;4889539;29;20965;-73
2023/12/22 14:08:17;;;;;;;10.27;2.95;;;;;;;;;;4871170;29;20122;-73
2023/12/22 14:10:47;;;;;;;11.27;4.32;;;;;;;;;;4885890;29;20039;-73
2023/12/22 14:13:14;;;;;;;10.70;3.40;;;;;;;;;;4872115;29;20142;-74
2023/12/22 14:15:45;;;;;;;15.50;3.90;;;;;;;;;;4873627;29;20423;-73
2023/12/22 14:18:13;;;;;;;10.75;3.17;;;;;;;;;;4887764;29;20806;-74
2023/12/22 14:20:40;;;;;;;11.27;3.63;;;;;;;;;;4890767;29;20561;-73
2023/12/22 14:23:08;;;;;;;11.95;3.70;;;;;;;;;;4892481;29;20032;-73
2023/12/22 14:25:35;;;;;;;13.40;3.45;;;;;;;;;;4892268;29;20063;-73
2023/12/22 14:28:01;;;;;;;9.70;3.15;;;;;;;;;;4892002;29;20145;-73
2023/12/22 14:30:27;;;;;;;10.93;3.83;;;;;;;;;;4888540;29;20043;-73
2023/12/22 14:32:55;;;;;;;10.00;3.28;;;;;;;;;;4879467;29;20038;-75
2023/12/22 14:35:22;;;;;;;10.75;3.55;;;;;;;;;;4873528;29;20112;-75
2023/12/22 14:37:48;;;;;;;8.63;2.97;;;;;;;;;;4878355;29;20121;-72
2023/12/22 14:40:16;;;;;;;9.00;2.88;;;;;;;;;;4886909;29;20036;-73
2023/12/22 14:42:44;;;;;;;8.88;3.00;;;;;;;;;;4876128;29;20036;-72
2023/12/22 14:45:12;;;;;;;9.55;3.17;;;;;;;;;;4870295;29;20035;-72